Station: Coonawarra  

  Atmospheric Gas Attenuation - ITU Rec 676-11   ----------------- dB/100km -----------------
Date Time Temp RH % AH g/m3 Dew Point Wind Direction Speed kph Gust kph Barometer mB Rainfall Since 9am 24GHz 47GHz 76GHz 122GHz 134GHz 241GHz
05/05 22:40 12.4 93 10.16 11.3 9 13 1023.2 0 23.0 29.3 47.6 125.0 122.8 423.5
05/05 22:30 12.1 94 10.08 11.2 9 11 1023.3 0 22.8 29.3 47.4 124.6 122.1 421.1
05/05 22:20 11.9 94 9.96 11 7 9 1023.3 0 22.6 29.2 47.0 123.5 120.7 416.2
05/05 22:10 11.7 94 9.83 10.8 7 9 1023.4 0 22.3 29.0 46.6 122.4 119.2 410.8
05/05 22:00 11.7 94 9.83 10.8 9 11 1023.4 0 22.3 29.0 46.6 122.4 119.2 410.8
05/05 21:50 11.3 93 9.49 10.2 7 9 1023.4 0 21.6 28.6 45.3 119.0 114.9 395.9
05/05 21:40 11.4 92 9.44 10.1 7 9 1023.5 0 21.5 28.4 45.1 118.3 114.1 393.0
05/05 21:30 11.8 92 9.68 10.5 9 9 1023.4 0 22.0 28.7 45.9 120.5 116.9 402.8
05/05 21:20 12.1 92 9.87 10.8 9 9 1023.4 0 22.4 28.9 46.5 122.2 119.1 410.7
05/05 21:10 12.3 91 9.88 10.9 7 9 1023.3 0 22.4 28.9 46.4 122.0 119.0 410.1
05/05 21:00 12.8 90 10.08 11.2 7 9 1023.3 0 22.8 29.1 47.0 123.5 121.0 417.3
05/05 20:50 13.2 89 10.22 11.4 6 7 1023.3 0 23.1 29.2 47.4 124.5 122.4 422.1
05/05 20:40 13.2 89 10.22 11.4 9 9 1023.3 0 23.1 29.2 47.4 124.5 122.4 422.1
05/05 20:30 13.3 89 10.28 11.5 9 13 1023.3 0 23.2 29.3 47.6 125.0 123.1 424.5
05/05 20:20 13.4 88 10.23 11.5 11 13 1023.4 0 23.1 29.1 47.3 124.3 122.2 421.5
05/05 20:10 13.3 88 10.17 11.4 13 15 1023.4 0 23.0 29.1 47.1 123.7 121.5 419.1
05/05 20:00 13.2 90 10.33 11.6 9 13 1023.4 0 23.3 29.4 47.8 125.7 123.9 427.6
05/05 19:50 13.2 90 10.33 11.6 7 9 1023.4 0 23.3 29.4 47.8 125.7 123.9 427.6
05/05 19:40 13.2 90 10.33 11.6 7 9 1023.4 0 23.3 29.4 47.8 125.7 123.9 427.6
05/05 19:30 13.4 89 10.35 11.6 7 9 1023.4 0 23.3 29.4 47.8 125.7 123.9 427.5
05/05 19:20 13.4 89 10.35 11.6 7 7 1023.4 0 23.3 29.4 47.8 125.7 123.9 427.5
05/05 19:10 13.5 88 10.29 11.6 7 7 1023.3 0 23.2 29.2 47.5 124.8 122.9 423.9
05/05 19:00 13.6 87 10.24 11.5 7 11 1023.3 0 23.1 29.1 47.2 124.1 122.0 420.9
05/05 18:50 13.6 87 10.24 11.5 7 9 1023.3 0 23.1 29.1 47.2 124.1 122.0 420.9
05/05 18:40 13.7 87 10.3 11.6 7 9 1023.2 0 23.2 29.2 47.4 124.6 122.7 423.3
05/05 18:30 13.6 88 10.36 11.7 7 11 1023.1 0 23.4 29.3 47.7 125.4 123.7 426.8
05/05 18:20 13.7 88 10.42 11.7 7 7 1023.1 0 23.5 29.4 47.9 125.9 124.4 429.2
05/05 18:10 13.7 88 10.42 11.7 6 7 1023 0 23.5 29.4 47.9 125.9 124.4 429.2
05/05 18:00 13.8 87 10.37 11.7 7 9 1022.9 0 23.4 29.2 47.6 125.2 123.5 426.1
05/05 17:50 13.7 87 10.3 11.6 7 9 1022.9 0 23.2 29.1 47.4 124.5 122.7 423.2
05/05 17:40 13.8 87 10.37 11.7 7 9 1022.8 0 23.4 29.2 47.6 125.2 123.5 426.1
05/05 17:30 14 86 10.37 11.7 13 19 1022.7 0 23.4 29.2 47.5 124.8 123.1 424.9
05/05 17:20 14.5 81 10.07 11.3 19 20 1022.6 0 22.7 28.5 45.9 120.6 118.1 407.6
05/05 17:10 14.7 81 10.2 11.5 7 9 1022.5 0 22.9 28.6 46.3 121.8 119.6 412.8
05/05 17:00 14.8 79 10.01 11.2 9 11 1022.4 0 22.5 28.3 45.5 119.5 116.8 403.0
05/05 16:50 14.9 79 10.07 11.3 11 11 1022.3 0 22.7 28.3 45.7 120.0 117.5 405.4
05/05 16:40 15.1 78 10.06 11.3 9 11 1022.3 0 22.6 28.3 45.5 119.6 117.1 403.9
05/05 16:30 15.2 77 9.99 11.2 11 13 1022.3 0 22.5 28.1 45.2 118.6 116.0 400.0
05/05 16:20 15.2 76 9.86 11 13 17 1022.3 0 22.2 27.9 44.6 117.2 114.2 393.8
05/05 16:10 15.3 73 9.53 10.5 11 13 1022.3 0 21.5 27.3 43.2 113.4 109.6 377.6
05/05 16:00 15.4 73 9.59 10.6 11 15 1022.2 0 21.6 27.4 43.4 113.9 110.2 380.0
05/05 15:50 15.5 71 9.38 10.3 13 15 1022.2 0 21.2 27.0 42.5 111.5 107.3 369.6
05/05 15:40 15.6 74 9.84 11 9 9 1022.2 0 22.1 27.7 44.3 116.4 113.3 390.8
05/05 15:30 15.5 73 9.65 10.7 15 22 1022.1 0 21.7 27.4 43.6 114.4 110.9 382.3
05/05 15:20 15.5 72 9.52 10.5 20 24 1022.1 0 21.5 27.2 43.0 113.0 109.1 376.2
05/05 15:10 15.7 73 9.77 10.9 13 17 1022 0 22.0 27.6 43.9 115.4 112.2 386.9
05/05 15:00 15.6 73 9.71 10.8 13 17 1021.9 0 21.9 27.5 43.7 114.9 111.5 384.5
05/05 14:50 15.5 72 9.52 10.5 13 15 1021.8 0 21.5 27.2 43.0 113.0 109.1 376.1
05/05 14:40 15.7 73 9.77 10.9 7 9 1021.8 0 22.0 27.6 43.9 115.4 112.2 386.9
05/05 14:30 15.6 74 9.84 11 13 19 1021.7 0 22.1 27.7 44.3 116.3 113.3 390.6
05/05 14:20 15.4 75 9.85 11 9 11 1021.6 0 22.2 27.8 44.4 116.7 113.7 392.1
05/05 14:10 15.3 75 9.79 10.9 13 15 1021.6 0 22.0 27.7 44.2 116.2 113.0 389.7
05/05 14:00 15.4 76 9.99 11.2 9 15 1021.6 0 22.5 28.0 45.0 118.2 115.6 398.7
05/05 13:50 15.4 75 9.85 11 15 17 1021.6 0 22.2 27.8 44.4 116.7 113.7 392.1
05/05 13:40 15.3 75 9.79 10.9 15 17 1021.5 0 22.0 27.7 44.2 116.2 113.0 389.7
05/05 13:30 15.2 73 9.48 10.4 9 13 1021.5 0 21.4 27.2 43.0 112.9 109.0 375.5
05/05 13:20 15.1 75 9.68 10.7 11 13 1021.6 0 21.8 27.6 43.9 115.3 111.8 385.5
05/05 13:10 15.5 73 9.65 10.7 15 17 1021.6 0 21.7 27.4 43.5 114.4 110.8 382.1
05/05 13:00 16.1 74 10.14 11.5 15 20 1021.6 0 22.7 28.0 45.2 118.8 116.6 402.3
05/05 12:50 16.1 70 9.59 10.6 15 17 1021.7 0 21.6 27.1 43.0 112.8 109.2 376.4
05/05 12:40 15.9 69 9.34 10.2 17 20 1021.7 0 21.1 26.8 42.1 110.4 106.1 365.8
05/05 12:30 16.1 72 9.87 11.1 13 20 1021.8 0 22.2 27.6 44.1 115.9 112.9 389.6
05/05 12:20 16.2 71 9.79 10.9 15 19 1021.9 0 22.0 27.4 43.7 114.9 111.7 385.4
05/05 12:10 15.9 71 9.61 10.7 13 17 1021.9 0 21.6 27.2 43.2 113.4 109.7 378.4
05/05 12:00 15.5 71 9.38 10.3 13 19 1022 0 21.2 27.0 42.5 111.5 107.2 369.6
05/05 11:50 15.5 73 9.65 10.7 19 20 1022.1 0 21.7 27.4 43.6 114.4 110.9 382.3
05/05 11:40 15.4 72 9.46 10.4 15 19 1022.1 0 21.3 27.2 42.8 112.5 108.5 373.8
05/05 11:30 15.4 73 9.59 10.6 11 17 1022.2 0 21.6 27.4 43.4 113.9 110.2 380.0
05/05 11:20 15 79 10.13 11.4 9 15 1022.4 0 22.8 28.4 45.9 120.5 118.2 407.8
05/05 11:10 14.3 83 10.2 11.5 11 13 1022.6 0 23.0 28.8 46.6 122.4 120.3 414.9
05/05 11:00 14 87 10.49 11.9 13 20 1022.7 0 23.6 29.4 48.0 126.2 124.8 430.9
05/05 10:50 14.1 82 9.95 11.1 15 19 1022.6 0 22.4 28.4 45.6 119.9 117.1 403.8
05/05 10:40 14.8 81 10.26 11.6 15 15 1022.5 0 23.1 28.7 46.5 122.3 120.3 415.2
05/05 10:30 14.3 84 10.32 11.6 9 13 1022.4 0 23.2 29.0 47.1 123.7 121.9 420.8
05/05 10:20 14.3 85 10.44 11.8 11 13 1022.4 0 23.5 29.2 47.6 125.1 123.6 426.6
05/05 10:10 13.7 85 10.07 11.2 13 15 1022.4 0 22.7 28.7 46.4 121.8 119.4 411.7
05/05 10:00 13.4 83 9.65 10.6 11 19 1022.4 0 21.8 28.1 44.8 117.6 114.0 392.8
05/05 09:50 13.4 86 10 11.1 7 9 1022.3 0 22.6 28.7 46.2 121.5 118.8 409.8
05/05 09:40 13.1 86 9.81 10.8 9 9 1022.3 0 22.2 28.5 45.6 119.8 116.6 402.1
05/05 09:30 13.1 89 10.16 11.3 7 11 1022.3 0 23.0 29.1 47.1 123.8 121.6 419.3
05/05 09:20 12.9 91 10.26 11.5 9 11 1022.3 0 23.2 29.3 47.7 125.3 123.3 425.4
05/05 09:10 12.3 90 9.77 10.7 6 6 1022.2 0 22.2 28.7 45.9 120.6 117.3 404.3
05/05 09:00 12.1 91 9.76 10.7 7 11 1022.2 0 22.2 28.7 46.0 120.8 117.5 404.8
05/05 08:50 12 91 9.7 10.6 11 13 1022.2 2.4 22.0 28.6 45.8 120.2 116.8 402.4
05/05 08:40 12.1 89 9.55 10.3 13 17 1022.2 2.4 21.7 28.3 45.1 118.4 114.5 394.4
05/05 08:30 11.8 91 9.58 10.4 9 11 1021.9 2.4 21.8 28.5 45.4 119.1 115.3 397.4
05/05 08:20 11.6 92 9.56 10.3 9 11 1021.8 2.4 21.7 28.5 45.4 119.2 115.3 397.4
05/05 08:10 11.5 94 9.71 10.6 9 11 1021.6 2.4 22.1 28.8 46.1 121.1 117.6 405.3
05/05 08:00 11.3 95 9.69 10.5 7 9 1021.4 2.4 22.0 28.8 46.1 121.1 117.6 405.3
05/05 07:50 11.2 96 9.73 10.6 0 0 1021.2 2.4 22.1 28.9 46.3 121.7 118.3 407.7
05/05 07:40 11 96 9.61 10.4 2 6 1021.1 2.4 21.9 28.8 45.9 120.6 116.9 402.7
05/05 07:30 10.8 96 9.49 10.2 2 6 1021 2.4 21.6 28.6 45.5 119.5 115.5 397.7
05/05 07:20 10.7 96 9.43 10.1 0 2 1020.8 2.4 21.5 28.5 45.3 119.0 114.8 395.2
05/05 07:10 10.7 96 9.43 10.1 4 6 1020.7 2.4 21.5 28.5 45.3 119.0 114.7 395.2
05/05 07:00 10.6 96 9.37 10 7 7 1020.5 2.4 21.4 28.5 45.1 118.4 114.0 392.6
05/05 06:50 10.6 96 9.37 10 6 7 1020.3 2.4 21.4 28.4 45.1 118.4 114.0 392.6
05/05 06:40 10.6 96 9.37 10 7 7 1020.1 2.4 21.4 28.4 45.1 118.3 114.0 392.5
05/05 06:30 10.5 95 9.22 9.7 6 9 1020.1 2.4 21.1 28.2 44.5 116.8 112.0 385.5
05/05 06:20 10.5 95 9.22 9.7 7 9 1020 2.4 21.1 28.2 44.5 116.8 112.0 385.5
05/05 06:10 10.5 95 9.22 9.7 0 0 1019.9 2.4 21.1 28.2 44.5 116.7 112.0 385.5

Last Refresh: 05-May-2026 22:40:07

Bureau of Meteorology